PWSweather.com
Personal Weather Stations
Station Observations
ITROMSHA6
HarstadNO 9407

HarstadNO 9407

Lat: 68.7814767, Lon: 16.5297091

Elevation: 145

Station Type: Davis Vantage Pro2

High Low Average
Temperature 44.7°F7.1°C 37.9°F3.3°C 41.1°F5.1°C
Dew Point 36.5°F2.5°C 32.5°F0.3°C 34.2°F1.2°C
Winds 14.0 mph 22.5 kmh Calm Calm 4.0 mph WSW6.4 kmh WSW
Wind Gusts 18.0 mph29.0 kmh -- 2.0 mph3.2 kmh
Humidity 88% 63% 77%
Pressure 30.35 in1027.8 mb 30.19 in1022.4 mb -
Precipitation 0.03 in0.8 mm - -
Hour Temp Dew Point Humidity Winds Wind Gusts Pressure Precip Precip Rate Daily Precip Total
12:00 AM 39.7°F4.3°C 32.7°F0.4°C 76% 2.0 mph SW3.2 kmh SW 9.0 mph14.5 kmh 30.20 in1022.7 mb 0.00 in0.0 mm 0.00 in0.0 mm 0.00 in0.0 mm
12:05 AM 39.7°F4.3°C 32.7°F0.4°C 76% 2.0 mph WSW3.2 kmh WSW -- 30.20 in1022.7 mb 0.00 in0.0 mm 0.00 in0.0 mm 0.00 in0.0 mm
12:10 AM 39.7°F4.3°C 32.7°F0.4°C 76% 5.0 mph WSW8.0 kmh WSW -- 30.20 in1022.7 mb 0.00 in0.0 mm 0.00 in0.0 mm 0.00 in0.0 mm
12:15 AM 39.7°F4.3°C 32.7°F0.4°C 76% 5.0 mph SW8.0 kmh SW -- 30.20 in1022.7 mb 0.00 in0.0 mm 0.00 in0.0 mm 0.00 in0.0 mm
12:20 AM 39.5°F4.2°C 32.7°F0.4°C 76% 8.0 mph SW12.9 kmh SW -- 30.20 in1022.7 mb 0.00 in0.0 mm 0.00 in0.0 mm 0.00 in0.0 mm
12:25 AM 39.5°F4.2°C 32.9°F0.5°C 77% 4.0 mph SW6.4 kmh SW 9.0 mph14.5 kmh 30.19 in1022.4 mb 0.00 in0.0 mm 0.00 in0.0 mm 0.00 in0.0 mm
12:30 AM 39.5°F4.2°C 32.9°F0.5°C 77% 8.0 mph SW12.9 kmh SW -- 30.19 in1022.4 mb 0.00 in0.0 mm 0.00 in0.0 mm 0.00 in0.0 mm
12:35 AM 39.5°F4.2°C 32.9°F0.5°C 77% 3.0 mph SW4.8 kmh SW -- 30.19 in1022.4 mb 0.00 in0.0 mm 0.00 in0.0 mm 0.00 in0.0 mm
12:40 AM 39.4°F4.1°C 32.7°F0.4°C 77% 5.0 mph SW8.0 kmh SW -- 30.20 in1022.7 mb 0.00 in0.0 mm 0.00 in0.0 mm 0.00 in0.0 mm
12:45 AM 39.5°F4.2°C 32.9°F0.5°C 77% 7.0 mph SW11.3 kmh SW -- 30.20 in1022.7 mb 0.00 in0.0 mm 0.00 in0.0 mm 0.00 in0.0 mm
12:50 AM 39.5°F4.2°C 32.9°F0.5°C 77% 3.0 mph SW4.8 kmh SW 10.0 mph16.1 kmh 30.20 in1022.7 mb 0.00 in0.0 mm 0.00 in0.0 mm 0.00 in0.0 mm
12:55 AM 39.5°F4.2°C 32.9°F0.5°C 77% 7.0 mph SW11.3 kmh SW -- 30.20 in1022.7 mb 0.00 in0.0 mm 0.00 in0.0 mm 0.00 in0.0 mm
01:00 AM 39.6°F4.2°C 32.9°F0.5°C 77% 5.0 mph SW8.0 kmh SW -- 30.20 in1022.7 mb 0.00 in0.0 mm 0.00 in0.0 mm 0.00 in0.0 mm
01:05 AM 39.6°F4.2°C 33.3°F0.7°C 78% 2.0 mph SW3.2 kmh SW -- 30.20 in1022.7 mb 0.00 in0.0 mm 0.00 in0.0 mm 0.00 in0.0 mm
01:10 AM 39.5°F4.2°C 33.3°F0.7°C 78% 2.0 mph WSW3.2 kmh WSW -- 30.20 in1022.7 mb 0.00 in0.0 mm 0.00 in0.0 mm 0.00 in0.0 mm
01:15 AM 39.5°F4.2°C 33.3°F0.7°C 78% 5.0 mph SW8.0 kmh SW 8.0 mph12.9 kmh 30.20 in1022.7 mb 0.00 in0.0 mm 0.00 in0.0 mm 0.00 in0.0 mm
01:20 AM 39.6°F4.2°C 33.3°F0.7°C 78% 3.0 mph WSW4.8 kmh WSW -- 30.20 in1022.7 mb 0.00 in0.0 mm 0.00 in0.0 mm 0.00 in0.0 mm
01:25 AM 39.4°F4.1°C 33.1°F0.6°C 78% 4.0 mph SW6.4 kmh SW -- 30.20 in1022.7 mb 0.00 in0.0 mm 0.00 in0.0 mm 0.00 in0.0 mm
01:30 AM 39.4°F4.1°C 32.7°F0.4°C 77% 3.0 mph SW4.8 kmh SW -- 30.20 in1022.7 mb 0.00 in0.0 mm 0.00 in0.0 mm 0.00 in0.0 mm
01:35 AM 39.3°F4.1°C 32.7°F0.4°C 77% 5.0 mph SW8.0 kmh SW -- 30.20 in1022.7 mb 0.00 in0.0 mm 0.00 in0.0 mm 0.00 in0.0 mm
01:40 AM 39.4°F4.1°C 32.7°F0.4°C 77% 6.0 mph SW9.7 kmh SW 8.0 mph12.9 kmh 30.20 in1022.7 mb 0.00 in0.0 mm 0.00 in0.0 mm 0.00 in0.0 mm
01:45 AM 39.5°F4.2°C 32.9°F0.5°C 77% 6.0 mph SW9.7 kmh SW -- 30.20 in1022.7 mb 0.00 in0.0 mm 0.00 in0.0 mm 0.00 in0.0 mm
01:50 AM 39.6°F4.2°C 32.9°F0.5°C 77% 6.0 mph WSW9.7 kmh WSW -- 30.20 in1022.7 mb 0.00 in0.0 mm 0.00 in0.0 mm 0.00 in0.0 mm
01:55 AM 39.6°F4.2°C 32.9°F0.5°C 77% 4.0 mph SW6.4 kmh SW -- 30.20 in1022.7 mb 0.00 in0.0 mm 0.00 in0.0 mm 0.00 in0.0 mm
02:00 AM 39.6°F4.2°C 32.9°F0.5°C 77% 3.0 mph SW4.8 kmh SW -- 30.20 in1022.7 mb 0.00 in0.0 mm 0.00 in0.0 mm 0.00 in0.0 mm
02:05 AM 39.5°F4.2°C 32.9°F0.5°C 77% 10.0 mph SW16.1 kmh SW 9.0 mph14.5 kmh 30.19 in1022.4 mb 0.00 in0.0 mm 0.00 in0.0 mm 0.00 in0.0 mm
02:10 AM 39.5°F4.2°C 32.9°F0.5°C 77% 6.0 mph SW9.7 kmh SW -- 30.20 in1022.7 mb 0.00 in0.0 mm 0.00 in0.0 mm 0.00 in0.0 mm
02:15 AM 39.3°F4.1°C 33.1°F0.6°C 78% 6.0 mph SSW9.7 kmh SSW -- 30.19 in1022.4 mb 0.00 in0.0 mm 0.00 in0.0 mm 0.00 in0.0 mm
02:20 AM 39.1°F3.9°C 32.7°F0.4°C 78% 5.0 mph SW8.0 kmh SW -- 30.19 in1022.4 mb 0.00 in0.0 mm 0.00 in0.0 mm 0.00 in0.0 mm
02:25 AM 39.1°F3.9°C 33.1°F0.6°C 79% 8.0 mph WSW12.9 kmh WSW -- 30.19 in1022.4 mb 0.00 in0.0 mm 0.00 in0.0 mm 0.00 in0.0 mm
02:30 AM 39.2°F4.0°C 33.3°F0.7°C 79% 8.0 mph SSW12.9 kmh SSW 12.0 mph19.3 kmh 30.19 in1022.4 mb 0.00 in0.0 mm 0.00 in0.0 mm 0.00 in0.0 mm
02:35 AM 39.2°F4.0°C 33.3°F0.7°C 79% 5.0 mph SW8.0 kmh SW -- 30.19 in1022.4 mb 0.00 in0.0 mm 0.00 in0.0 mm 0.00 in0.0 mm
02:40 AM 39.2°F4.0°C 33.3°F0.7°C 79% 6.0 mph SW9.7 kmh SW -- 30.19 in1022.4 mb 0.00 in0.0 mm 0.00 in0.0 mm 0.00 in0.0 mm
02:45 AM 39.3°F4.1°C 33.4°F0.8°C 79% 6.0 mph SW9.7 kmh SW -- 30.19 in1022.4 mb 0.00 in0.0 mm 0.00 in0.0 mm 0.00 in0.0 mm
02:50 AM 39.3°F4.1°C 33.4°F0.8°C 79% 5.0 mph SW8.0 kmh SW -- 30.19 in1022.4 mb 0.00 in0.0 mm 0.00 in0.0 mm 0.00 in0.0 mm
02:55 AM 39.3°F4.1°C 33.4°F0.8°C 79% 4.0 mph SW6.4 kmh SW 12.0 mph19.3 kmh 30.19 in1022.4 mb 0.00 in0.0 mm 0.00 in0.0 mm 0.00 in0.0 mm
03:00 AM 39.3°F4.1°C 33.8°F1.0°C 80% 5.0 mph SW8.0 kmh SW -- 30.20 in1022.7 mb 0.00 in0.0 mm 0.00 in0.0 mm 0.00 in0.0 mm
03:05 AM 39.3°F4.1°C 33.8°F1.0°C 80% 6.0 mph SSW9.7 kmh SSW -- 30.20 in1022.7 mb 0.00 in0.0 mm 0.00 in0.0 mm 0.00 in0.0 mm
03:10 AM 39.2°F4.0°C 33.6°F0.9°C 80% 6.0 mph SSW9.7 kmh SSW -- 30.19 in1022.4 mb 0.00 in0.0 mm 0.00 in0.0 mm 0.00 in0.0 mm
03:15 AM 39.1°F3.9°C 33.6°F0.9°C 81% 9.0 mph SSW14.5 kmh SSW -- 30.20 in1022.7 mb 0.00 in0.0 mm 0.00 in0.0 mm 0.00 in0.0 mm
03:20 AM 38.8°F3.8°C 33.8°F1.0°C 82% 8.0 mph SW12.9 kmh SW 17.0 mph27.4 kmh 30.20 in1022.7 mb 0.00 in0.0 mm 0.00 in0.0 mm 0.00 in0.0 mm
03:25 AM 38.8°F3.8°C 33.8°F1.0°C 82% 11.0 mph SW17.7 kmh SW -- 30.19 in1022.4 mb 0.00 in0.0 mm 0.00 in0.0 mm 0.00 in0.0 mm
03:30 AM 38.9°F3.8°C 33.8°F1.0°C 82% 9.0 mph SW14.5 kmh SW -- 30.19 in1022.4 mb 0.00 in0.0 mm 0.00 in0.0 mm 0.00 in0.0 mm
03:35 AM 38.9°F3.8°C 33.8°F1.0°C 82% 14.0 mph SW22.5 kmh SW -- 30.20 in1022.7 mb 0.00 in0.0 mm 0.00 in0.0 mm 0.00 in0.0 mm
03:40 AM 39.1°F3.9°C 34.0°F1.1°C 82% 9.0 mph SW14.5 kmh SW -- 30.20 in1022.7 mb 0.00 in0.0 mm 0.00 in0.0 mm 0.00 in0.0 mm
03:45 AM 39.0°F3.9°C 34.0°F1.1°C 82% 8.0 mph SSW12.9 kmh SSW 16.0 mph25.7 kmh 30.19 in1022.4 mb 0.00 in0.0 mm 0.00 in0.0 mm 0.00 in0.0 mm
03:50 AM 38.7°F3.7°C 34.0°F1.1°C 83% 9.0 mph SW14.5 kmh SW -- 30.19 in1022.4 mb 0.00 in0.0 mm 0.00 in0.0 mm 0.00 in0.0 mm
03:55 AM 38.6°F3.7°C 34.2°F1.2°C 84% 14.0 mph S22.5 kmh S -- 30.19 in1022.4 mb 0.00 in0.0 mm 0.00 in0.0 mm 0.00 in0.0 mm
04:00 AM 38.5°F3.6°C 34.2°F1.2°C 84% 9.0 mph SW14.5 kmh SW -- 30.19 in1022.4 mb 0.00 in0.0 mm 0.00 in0.0 mm 0.00 in0.0 mm
04:05 AM 38.4°F3.6°C 34.3°F1.3°C 85% 3.0 mph SW4.8 kmh SW -- 30.20 in1022.7 mb 0.00 in0.0 mm 0.00 in0.0 mm 0.00 in0.0 mm
04:10 AM 38.4°F3.6°C 34.3°F1.3°C 85% 5.0 mph SSW8.0 kmh SSW 18.0 mph29.0 kmh 30.20 in1022.7 mb 0.00 in0.0 mm 0.00 in0.0 mm 0.00 in0.0 mm
04:15 AM 38.4°F3.6°C 34.3°F1.3°C 85% 6.0 mph SW9.7 kmh SW -- 30.19 in1022.4 mb 0.00 in0.0 mm 0.00 in0.0 mm 0.00 in0.0 mm
04:20 AM 38.4°F3.6°C 34.3°F1.3°C 85% 3.0 mph SW4.8 kmh SW -- 30.20 in1022.7 mb 0.00 in0.0 mm 0.00 in0.0 mm 0.00 in0.0 mm
04:25 AM 38.5°F3.6°C 34.3°F1.3°C 85% Calm Calm -- 30.20 in1022.7 mb 0.00 in0.0 mm 0.00 in0.0 mm 0.00 in0.0 mm
04:30 AM 38.5°F3.6°C 34.3°F1.3°C 85% Calm Calm -- 30.20 in1022.7 mb 0.00 in0.0 mm 0.00 in0.0 mm 0.00 in0.0 mm
04:35 AM 38.7°F3.7°C 34.2°F1.2°C 84% 3.0 mph NW4.8 kmh NW 11.0 mph17.7 kmh 30.20 in1022.7 mb 0.01 in0.3 mm 0.12 in3.0 mm 0.01 in0.3 mm
04:40 AM 38.7°F3.7°C 34.2°F1.2°C 84% 2.0 mph WSW3.2 kmh WSW -- 30.21 in1023.0 mb 0.01 in0.3 mm 0.00 in0.0 mm 0.01 in0.3 mm
04:45 AM 38.6°F3.7°C 34.5°F1.4°C 85% 4.0 mph WSW6.4 kmh WSW -- 30.20 in1022.7 mb 0.02 in0.5 mm 0.12 in3.0 mm 0.02 in0.5 mm
04:50 AM 38.4°F3.6°C 34.7°F1.5°C 86% 3.0 mph SW4.8 kmh SW -- 30.21 in1023.0 mb 0.02 in0.5 mm 0.00 in0.0 mm 0.02 in0.5 mm
04:55 AM 38.2°F3.4°C 34.3°F1.3°C 86% 1.0 mph SW1.6 kmh SW -- 30.21 in1023.0 mb 0.02 in0.5 mm 0.00 in0.0 mm 0.02 in0.5 mm
05:00 AM 38.1°F3.4°C 34.5°F1.4°C 87% 2.0 mph SSW3.2 kmh SSW 5.0 mph8.0 kmh 30.20 in1022.7 mb 0.02 in0.5 mm 0.00 in0.0 mm 0.02 in0.5 mm
05:05 AM 38.0°F3.3°C 34.3°F1.3°C 87% 4.0 mph SW6.4 kmh SW -- 30.20 in1022.7 mb 0.02 in0.5 mm 0.00 in0.0 mm 0.02 in0.5 mm
05:10 AM 37.9°F3.3°C 34.7°F1.5°C 88% 4.0 mph SW6.4 kmh SW -- 30.20 in1022.7 mb 0.02 in0.5 mm 0.00 in0.0 mm 0.02 in0.5 mm
05:15 AM 38.1°F3.4°C 34.9°F1.6°C 88% 3.0 mph W4.8 kmh W -- 30.20 in1022.7 mb 0.02 in0.5 mm 0.00 in0.0 mm 0.02 in0.5 mm
05:20 AM 38.4°F3.6°C 35.2°F1.8°C 88% 5.0 mph SW8.0 kmh SW -- 30.20 in1022.7 mb 0.02 in0.5 mm 0.00 in0.0 mm 0.02 in0.5 mm
05:25 AM 38.8°F3.8°C 35.6°F2.0°C 88% 4.0 mph SW6.4 kmh SW 7.0 mph11.3 kmh 30.20 in1022.7 mb 0.02 in0.5 mm 0.00 in0.0 mm 0.02 in0.5 mm
05:30 AM 39.1°F3.9°C 35.8°F2.1°C 88% 4.0 mph SW6.4 kmh SW -- 30.20 in1022.7 mb 0.02 in0.5 mm 0.00 in0.0 mm 0.02 in0.5 mm
05:35 AM 39.3°F4.1°C 35.8°F2.1°C 87% 2.0 mph SW3.2 kmh SW -- 30.20 in1022.7 mb 0.01 in0.3 mm 0.00 in0.0 mm 0.02 in0.5 mm
05:40 AM 39.4°F4.1°C 35.8°F2.1°C 87% Calm Calm -- 30.20 in1022.7 mb 0.01 in0.3 mm 0.00 in0.0 mm 0.02 in0.5 mm
05:45 AM 39.6°F4.2°C 35.8°F2.1°C 86% Calm Calm -- 30.20 in1022.7 mb 0.00 in0.0 mm 0.00 in0.0 mm 0.02 in0.5 mm
05:50 AM 39.7°F4.3°C 36.0°F2.2°C 86% 1.0 mph SSW1.6 kmh SSW 1.0 mph1.6 kmh 30.20 in1022.7 mb 0.00 in0.0 mm 0.00 in0.0 mm 0.02 in0.5 mm
05:55 AM 39.8°F4.3°C 36.0°F2.2°C 86% 1.0 mph SSE1.6 kmh SSE -- 30.20 in1022.7 mb 0.00 in0.0 mm 0.00 in0.0 mm 0.02 in0.5 mm
06:00 AM 39.9°F4.4°C 36.1°F2.3°C 86% 4.0 mph SW6.4 kmh SW -- 30.21 in1023.0 mb 0.00 in0.0 mm 0.00 in0.0 mm 0.02 in0.5 mm
06:05 AM 39.9°F4.4°C 35.8°F2.1°C 85% Calm Calm -- 30.21 in1023.0 mb 0.00 in0.0 mm 0.00 in0.0 mm 0.02 in0.5 mm
06:10 AM 40.0°F4.4°C 35.8°F2.1°C 85% 1.0 mph SW1.6 kmh SW -- 30.21 in1023.0 mb 0.00 in0.0 mm 0.00 in0.0 mm 0.02 in0.5 mm
06:15 AM 40.0°F4.4°C 35.8°F2.1°C 85% 1.0 mph SW1.6 kmh SW 4.0 mph6.4 kmh 30.21 in1023.0 mb 0.00 in0.0 mm 0.00 in0.0 mm 0.02 in0.5 mm
06:20 AM 39.8°F4.3°C 35.2°F1.8°C 84% 1.0 mph WSW1.6 kmh WSW -- 30.21 in1023.0 mb 0.00 in0.0 mm 0.00 in0.0 mm 0.02 in0.5 mm
06:25 AM 39.6°F4.2°C 35.1°F1.7°C 84% Calm Calm -- 30.21 in1023.0 mb 0.00 in0.0 mm 0.00 in0.0 mm 0.02 in0.5 mm
06:30 AM 39.7°F4.3°C 35.6°F2.0°C 85% Calm Calm -- 30.22 in1023.4 mb 0.00 in0.0 mm 0.00 in0.0 mm 0.02 in0.5 mm
06:35 AM 39.9°F4.4°C 36.1°F2.3°C 86% 2.0 mph SW3.2 kmh SW -- 30.22 in1023.4 mb 0.00 in0.0 mm 0.00 in0.0 mm 0.02 in0.5 mm
06:40 AM 39.7°F4.3°C 35.6°F2.0°C 85% 2.0 mph W3.2 kmh W 9.0 mph14.5 kmh 30.22 in1023.4 mb 0.00 in0.0 mm 0.00 in0.0 mm 0.02 in0.5 mm
06:45 AM 39.7°F4.3°C 35.6°F2.0°C 85% Calm Calm -- 30.22 in1023.4 mb 0.00 in0.0 mm 0.00 in0.0 mm 0.02 in0.5 mm
06:50 AM 39.7°F4.3°C 35.6°F2.0°C 85% 1.0 mph WSW1.6 kmh WSW -- 30.22 in1023.4 mb 0.00 in0.0 mm 0.00 in0.0 mm 0.02 in0.5 mm
06:55 AM 39.8°F4.3°C 35.6°F2.0°C 85% 1.0 mph SW1.6 kmh SW -- 30.22 in1023.4 mb 0.00 in0.0 mm 0.00 in0.0 mm 0.02 in0.5 mm
07:00 AM 39.9°F4.4°C 35.8°F2.1°C 85% 2.0 mph NW3.2 kmh NW -- 30.22 in1023.4 mb 0.00 in0.0 mm 0.00 in0.0 mm 0.02 in0.5 mm
07:05 AM 39.9°F4.4°C 35.4°F1.9°C 84% 6.0 mph WSW9.7 kmh WSW 7.0 mph11.3 kmh 30.22 in1023.4 mb 0.00 in0.0 mm 0.00 in0.0 mm 0.02 in0.5 mm
07:10 AM 40.3°F4.6°C 36.1°F2.3°C 85% 1.0 mph NW1.6 kmh NW -- 30.22 in1023.4 mb 0.00 in0.0 mm 0.00 in0.0 mm 0.02 in0.5 mm
07:15 AM 40.6°F4.8°C 36.1°F2.3°C 84% 4.0 mph NW6.4 kmh NW -- 30.22 in1023.4 mb 0.00 in0.0 mm 0.00 in0.0 mm 0.02 in0.5 mm
07:20 AM 40.6°F4.8°C 36.1°F2.3°C 84% 8.0 mph WSW12.9 kmh WSW -- 30.22 in1023.4 mb 0.00 in0.0 mm 0.00 in0.0 mm 0.02 in0.5 mm
07:25 AM 40.1°F4.5°C 35.4°F1.9°C 83% 3.0 mph W4.8 kmh W -- 30.23 in1023.7 mb 0.00 in0.0 mm 0.00 in0.0 mm 0.02 in0.5 mm
07:30 AM 39.8°F4.3°C 35.2°F1.8°C 84% 5.0 mph W8.0 kmh W 10.0 mph16.1 kmh 30.23 in1023.7 mb 0.00 in0.0 mm 0.00 in0.0 mm 0.02 in0.5 mm
07:35 AM 39.8°F4.3°C 35.2°F1.8°C 84% 1.0 mph SSW1.6 kmh SSW -- 30.23 in1023.7 mb 0.00 in0.0 mm 0.00 in0.0 mm 0.02 in0.5 mm
07:40 AM 39.7°F4.3°C 35.6°F2.0°C 85% 7.0 mph WSW11.3 kmh WSW -- 30.23 in1023.7 mb 0.00 in0.0 mm 0.00 in0.0 mm 0.02 in0.5 mm
07:45 AM 39.4°F4.1°C 35.2°F1.8°C 85% 6.0 mph SW9.7 kmh SW -- 30.23 in1023.7 mb 0.00 in0.0 mm 0.00 in0.0 mm 0.02 in0.5 mm
07:50 AM 39.2°F4.0°C 35.1°F1.7°C 85% 7.0 mph SW11.3 kmh SW -- 30.23 in1023.7 mb 0.00 in0.0 mm 0.00 in0.0 mm 0.02 in0.5 mm
07:55 AM 39.4°F4.1°C 34.9°F1.6°C 84% 3.0 mph SW4.8 kmh SW 13.0 mph20.9 kmh 30.23 in1023.7 mb 0.00 in0.0 mm 0.00 in0.0 mm 0.02 in0.5 mm
08:00 AM 39.6°F4.2°C 35.1°F1.7°C 84% 8.0 mph SW12.9 kmh SW -- 30.23 in1023.7 mb 0.00 in0.0 mm 0.00 in0.0 mm 0.02 in0.5 mm
08:05 AM 39.8°F4.3°C 35.1°F1.7°C 83% 8.0 mph WSW12.9 kmh WSW -- 30.23 in1023.7 mb 0.00 in0.0 mm 0.00 in0.0 mm 0.02 in0.5 mm
08:10 AM 40.0°F4.4°C 34.9°F1.6°C 82% 4.0 mph SW6.4 kmh SW -- 30.23 in1023.7 mb 0.00 in0.0 mm 0.00 in0.0 mm 0.02 in0.5 mm
08:15 AM 40.2°F4.6°C 34.9°F1.6°C 81% 6.0 mph SW9.7 kmh SW -- 30.23 in1023.7 mb 0.00 in0.0 mm 0.00 in0.0 mm 0.02 in0.5 mm
08:20 AM 40.5°F4.7°C 35.1°F1.7°C 81% 3.0 mph SW4.8 kmh SW 8.0 mph12.9 kmh 30.23 in1023.7 mb 0.00 in0.0 mm 0.00 in0.0 mm 0.02 in0.5 mm
08:25 AM 40.7°F4.8°C 34.7°F1.5°C 79% 1.0 mph S1.6 kmh S -- 30.23 in1023.7 mb 0.00 in0.0 mm 0.00 in0.0 mm 0.02 in0.5 mm
08:30 AM 40.8°F4.9°C 34.9°F1.6°C 79% 2.0 mph WSW3.2 kmh WSW -- 30.23 in1023.7 mb 0.00 in0.0 mm 0.00 in0.0 mm 0.02 in0.5 mm
08:35 AM 40.7°F4.8°C 34.7°F1.5°C 79% 3.0 mph WSW4.8 kmh WSW -- 30.23 in1023.7 mb 0.00 in0.0 mm 0.00 in0.0 mm 0.02 in0.5 mm
08:40 AM 41.3°F5.2°C 35.1°F1.7°C 78% 2.0 mph WSW3.2 kmh WSW -- 30.23 in1023.7 mb 0.00 in0.0 mm 0.00 in0.0 mm 0.02 in0.5 mm
08:45 AM 42.0°F5.6°C 35.8°F2.1°C 78% 6.0 mph WSW9.7 kmh WSW 11.0 mph17.7 kmh 30.23 in1023.7 mb 0.00 in0.0 mm 0.00 in0.0 mm 0.02 in0.5 mm
08:50 AM 42.5°F5.8°C 35.1°F1.7°C 75% 5.0 mph W8.0 kmh W -- 30.23 in1023.7 mb 0.00 in0.0 mm 0.00 in0.0 mm 0.02 in0.5 mm
08:55 AM 43.5°F6.4°C 36.5°F2.5°C 76% 2.0 mph S3.2 kmh S -- 30.23 in1023.7 mb 0.00 in0.0 mm 0.00 in0.0 mm 0.02 in0.5 mm
09:00 AM 44.1°F6.7°C 36.0°F2.2°C 73% Calm Calm -- 30.23 in1023.7 mb 0.00 in0.0 mm 0.00 in0.0 mm 0.02 in0.5 mm
09:05 AM 43.2°F6.2°C 33.6°F0.9°C 69% 4.0 mph WNW6.4 kmh WNW -- 30.23 in1023.7 mb 0.00 in0.0 mm 0.00 in0.0 mm 0.02 in0.5 mm
09:10 AM 42.5°F5.8°C 33.8°F1.0°C 71% 2.0 mph WSW3.2 kmh WSW 12.0 mph19.3 kmh 30.23 in1023.7 mb 0.00 in0.0 mm 0.00 in0.0 mm 0.02 in0.5 mm
09:15 AM 42.4°F5.8°C 34.0°F1.1°C 72% 1.0 mph WSW1.6 kmh WSW -- 30.23 in1023.7 mb 0.00 in0.0 mm 0.00 in0.0 mm 0.02 in0.5 mm
09:20 AM 42.2°F5.7°C 33.8°F1.0°C 72% Calm Calm -- 30.23 in1023.7 mb 0.00 in0.0 mm 0.00 in0.0 mm 0.02 in0.5 mm
09:25 AM 42.3°F5.7°C 33.8°F1.0°C 72% 1.0 mph WSW1.6 kmh WSW -- 30.23 in1023.7 mb 0.00 in0.0 mm 0.00 in0.0 mm 0.02 in0.5 mm
09:30 AM 42.8°F6.0°C 34.7°F1.5°C 73% 2.0 mph S3.2 kmh S -- 30.23 in1023.7 mb 0.00 in0.0 mm 0.00 in0.0 mm 0.02 in0.5 mm
09:35 AM 42.8°F6.0°C 34.0°F1.1°C 71% 2.0 mph SW3.2 kmh SW 5.0 mph8.0 kmh 30.23 in1023.7 mb 0.00 in0.0 mm 0.00 in0.0 mm 0.02 in0.5 mm
09:40 AM 42.8°F6.0°C 34.0°F1.1°C 71% Calm Calm -- 30.24 in1024.0 mb 0.00 in0.0 mm 0.00 in0.0 mm 0.02 in0.5 mm
09:45 AM 42.4°F5.8°C 33.8°F1.0°C 71% 5.0 mph W8.0 kmh W -- 30.25 in1024.4 mb 0.00 in0.0 mm 0.00 in0.0 mm 0.02 in0.5 mm
09:50 AM 41.3°F5.2°C 34.0°F1.1°C 75% 2.0 mph WSW3.2 kmh WSW -- 30.25 in1024.4 mb 0.01 in0.3 mm 0.12 in3.0 mm 0.02 in0.5 mm
09:55 AM 40.2°F4.6°C 34.0°F1.1°C 78% 2.0 mph SSW3.2 kmh SSW -- 30.25 in1024.4 mb 0.01 in0.3 mm 0.00 in0.0 mm 0.02 in0.5 mm
10:00 AM 39.3°F4.1°C 34.3°F1.3°C 82% 4.0 mph SW6.4 kmh SW 17.0 mph27.4 kmh 30.25 in1024.4 mb 0.01 in0.3 mm 0.00 in0.0 mm 0.02 in0.5 mm
10:05 AM 38.8°F3.8°C 34.3°F1.3°C 84% 4.0 mph SW6.4 kmh SW -- 30.25 in1024.4 mb 0.01 in0.3 mm 0.00 in0.0 mm 0.02 in0.5 mm
10:10 AM 39.0°F3.9°C 35.4°F1.9°C 87% 6.0 mph SW9.7 kmh SW -- 30.25 in1024.4 mb 0.01 in0.3 mm 0.00 in0.0 mm 0.02 in0.5 mm
10:15 AM 39.4°F4.1°C 35.8°F2.1°C 87% 5.0 mph SSW8.0 kmh SSW -- 30.25 in1024.4 mb 0.01 in0.3 mm 0.00 in0.0 mm 0.02 in0.5 mm
10:20 AM 40.1°F4.5°C 36.5°F2.5°C 87% Calm Calm -- 30.25 in1024.4 mb 0.01 in0.3 mm 0.00 in0.0 mm 0.02 in0.5 mm
10:25 AM 40.6°F4.8°C 36.5°F2.5°C 85% 4.0 mph WSW6.4 kmh WSW 7.0 mph11.3 kmh 30.25 in1024.4 mb 0.01 in0.3 mm 0.00 in0.0 mm 0.02 in0.5 mm
10:30 AM 41.1°F5.1°C 36.5°F2.5°C 83% 1.0 mph W1.6 kmh W -- 30.25 in1024.4 mb 0.01 in0.3 mm 0.00 in0.0 mm 0.02 in0.5 mm
10:35 AM 41.2°F5.1°C 35.2°F1.8°C 79% 6.0 mph WSW9.7 kmh WSW -- 30.25 in1024.4 mb 0.01 in0.3 mm 0.00 in0.0 mm 0.02 in0.5 mm
10:40 AM 41.1°F5.1°C 35.4°F1.9°C 80% 2.0 mph WSW3.2 kmh WSW -- 30.24 in1024.0 mb 0.01 in0.3 mm 0.00 in0.0 mm 0.02 in0.5 mm
10:45 AM 41.3°F5.2°C 35.6°F2.0°C 80% 6.0 mph WSW9.7 kmh WSW -- 30.25 in1024.4 mb 0.01 in0.3 mm 0.00 in0.0 mm 0.02 in0.5 mm
10:50 AM 41.5°F5.3°C 35.2°F1.8°C 78% 3.0 mph SW4.8 kmh SW 13.0 mph20.9 kmh 30.25 in1024.4 mb 0.00 in0.0 mm 0.00 in0.0 mm 0.02 in0.5 mm
10:55 AM 41.8°F5.4°C 35.1°F1.7°C 77% 8.0 mph W12.9 kmh W -- 30.25 in1024.4 mb 0.00 in0.0 mm 0.00 in0.0 mm 0.02 in0.5 mm
11:00 AM 41.8°F5.4°C 34.7°F1.5°C 76% 7.0 mph S11.3 kmh S -- 30.25 in1024.4 mb 0.00 in0.0 mm 0.00 in0.0 mm 0.02 in0.5 mm
11:05 AM 42.2°F5.7°C 35.2°F1.8°C 76% 5.0 mph W8.0 kmh W -- 30.25 in1024.4 mb 0.00 in0.0 mm 0.00 in0.0 mm 0.02 in0.5 mm
11:10 AM 42.3°F5.7°C 35.2°F1.8°C 76% 3.0 mph SSW4.8 kmh SSW -- 30.25 in1024.4 mb 0.00 in0.0 mm 0.00 in0.0 mm 0.02 in0.5 mm
11:15 AM 42.3°F5.7°C 34.5°F1.4°C 74% 7.0 mph SW11.3 kmh SW 11.0 mph17.7 kmh 30.25 in1024.4 mb 0.00 in0.0 mm 0.00 in0.0 mm 0.02 in0.5 mm
11:20 AM 42.3°F5.7°C 34.2°F1.2°C 73% 2.0 mph SSW3.2 kmh SSW -- 30.25 in1024.4 mb 0.00 in0.0 mm 0.00 in0.0 mm 0.02 in0.5 mm
11:25 AM 42.5°F5.8°C 34.0°F1.1°C 72% 7.0 mph SW11.3 kmh SW -- 30.24 in1024.0 mb 0.00 in0.0 mm 0.00 in0.0 mm 0.02 in0.5 mm
11:30 AM 42.5°F5.8°C 33.8°F1.0°C 71% 4.0 mph SE6.4 kmh SE -- 30.25 in1024.4 mb 0.00 in0.0 mm 0.00 in0.0 mm 0.02 in0.5 mm
11:35 AM 42.5°F5.8°C 33.4°F0.8°C 70% 3.0 mph WNW4.8 kmh WNW -- 30.25 in1024.4 mb 0.00 in0.0 mm 0.00 in0.0 mm 0.02 in0.5 mm
11:40 AM 42.5°F5.8°C 33.8°F1.0°C 71% 8.0 mph SW12.9 kmh SW 11.0 mph17.7 kmh 30.25 in1024.4 mb 0.00 in0.0 mm 0.00 in0.0 mm 0.02 in0.5 mm
11:45 AM 42.8°F6.0°C 34.0°F1.1°C 71% 8.0 mph WSW12.9 kmh WSW -- 30.25 in1024.4 mb 0.00 in0.0 mm 0.00 in0.0 mm 0.02 in0.5 mm
11:50 AM 43.1°F6.2°C 34.0°F1.1°C 70% 6.0 mph SSW9.7 kmh SSW -- 30.25 in1024.4 mb 0.00 in0.0 mm 0.00 in0.0 mm 0.02 in0.5 mm
11:55 AM 43.7°F6.5°C 34.2°F1.2°C 69% 6.0 mph SW9.7 kmh SW -- 30.25 in1024.4 mb 0.00 in0.0 mm 0.00 in0.0 mm 0.02 in0.5 mm
12:00 PM 43.7°F6.5°C 34.9°F1.6°C 71% 8.0 mph WSW12.9 kmh WSW -- 30.25 in1024.4 mb 0.00 in0.0 mm 0.00 in0.0 mm 0.02 in0.5 mm
12:05 PM 43.8°F6.6°C 34.7°F1.5°C 70% 6.0 mph SW9.7 kmh SW 11.0 mph17.7 kmh 30.25 in1024.4 mb 0.00 in0.0 mm 0.00 in0.0 mm 0.02 in0.5 mm
12:10 PM 44.1°F6.7°C 33.8°F1.0°C 67% 5.0 mph SW8.0 kmh SW -- 30.25 in1024.4 mb 0.00 in0.0 mm 0.00 in0.0 mm 0.02 in0.5 mm
12:15 PM 44.1°F6.7°C 33.8°F1.0°C 67% 4.0 mph SW6.4 kmh SW -- 30.25 in1024.4 mb 0.00 in0.0 mm 0.00 in0.0 mm 0.02 in0.5 mm
12:20 PM 44.2°F6.8°C 33.6°F0.9°C 66% 10.0 mph W16.1 kmh W -- 30.25 in1024.4 mb 0.00 in0.0 mm 0.00 in0.0 mm 0.02 in0.5 mm
12:25 PM 43.9°F6.6°C 32.9°F0.5°C 65% 5.0 mph W8.0 kmh W -- 30.25 in1024.4 mb 0.00 in0.0 mm 0.00 in0.0 mm 0.02 in0.5 mm
12:30 PM 43.8°F6.6°C 33.3°F0.7°C 66% 3.0 mph SW4.8 kmh SW 12.0 mph19.3 kmh 30.25 in1024.4 mb 0.00 in0.0 mm 0.00 in0.0 mm 0.02 in0.5 mm
12:35 PM 43.7°F6.5°C 32.7°F0.4°C 65% 4.0 mph S6.4 kmh S -- 30.25 in1024.4 mb 0.00 in0.0 mm 0.00 in0.0 mm 0.02 in0.5 mm
12:40 PM 43.6°F6.4°C 32.9°F0.5°C 66% 9.0 mph SW14.5 kmh SW -- 30.26 in1024.7 mb 0.00 in0.0 mm 0.00 in0.0 mm 0.02 in0.5 mm
12:45 PM 43.6°F6.4°C 33.3°F0.7°C 67% 4.0 mph WSW6.4 kmh WSW -- 30.26 in1024.7 mb 0.00 in0.0 mm 0.00 in0.0 mm 0.02 in0.5 mm
12:50 PM 43.3°F6.3°C 34.5°F1.4°C 71% 5.0 mph NNW8.0 kmh NNW -- 30.26 in1024.7 mb 0.00 in0.0 mm 0.00 in0.0 mm 0.02 in0.5 mm
12:55 PM 42.3°F5.7°C 34.5°F1.4°C 74% 3.0 mph W4.8 kmh W 10.0 mph16.1 kmh 30.26 in1024.7 mb 0.00 in0.0 mm 0.00 in0.0 mm 0.02 in0.5 mm
01:00 PM 42.2°F5.7°C 35.2°F1.8°C 76% 3.0 mph WNW4.8 kmh WNW -- 30.26 in1024.7 mb 0.00 in0.0 mm 0.00 in0.0 mm 0.02 in0.5 mm
01:05 PM 42.1°F5.6°C 35.1°F1.7°C 76% 3.0 mph NW4.8 kmh NW -- 30.26 in1024.7 mb 0.00 in0.0 mm 0.00 in0.0 mm 0.02 in0.5 mm
01:10 PM 42.4°F5.8°C 35.8°F2.1°C 77% 1.0 mph NW1.6 kmh NW -- 30.26 in1024.7 mb 0.00 in0.0 mm 0.00 in0.0 mm 0.02 in0.5 mm
01:15 PM 42.9°F6.1°C 36.0°F2.2°C 76% 1.0 mph SE1.6 kmh SE -- 30.26 in1024.7 mb 0.00 in0.0 mm 0.00 in0.0 mm 0.02 in0.5 mm
01:20 PM 43.2°F6.2°C 35.4°F1.9°C 74% Calm Calm 5.0 mph8.0 kmh 30.25 in1024.4 mb 0.00 in0.0 mm 0.00 in0.0 mm 0.02 in0.5 mm
01:25 PM 43.8°F6.6°C 35.8°F2.1°C 73% 2.0 mph WSW3.2 kmh WSW -- 30.26 in1024.7 mb 0.00 in0.0 mm 0.00 in0.0 mm 0.02 in0.5 mm
01:30 PM 44.3°F6.8°C 35.1°F1.7°C 70% 9.0 mph WSW14.5 kmh WSW -- 30.25 in1024.4 mb 0.00 in0.0 mm 0.00 in0.0 mm 0.02 in0.5 mm
01:35 PM 44.6°F7.0°C 34.3°F1.3°C 67% 6.0 mph SW9.7 kmh SW -- 30.26 in1024.7 mb 0.00 in0.0 mm 0.00 in0.0 mm 0.02 in0.5 mm
01:40 PM 44.5°F6.9°C 33.4°F0.8°C 65% 3.0 mph WSW4.8 kmh WSW -- 30.26 in1024.7 mb 0.00 in0.0 mm 0.00 in0.0 mm 0.02 in0.5 mm
01:45 PM 44.5°F6.9°C 33.4°F0.8°C 65% 7.0 mph WSW11.3 kmh WSW 11.0 mph17.7 kmh 30.26 in1024.7 mb 0.00 in0.0 mm 0.00 in0.0 mm 0.02 in0.5 mm
01:50 PM 44.5°F6.9°C 33.4°F0.8°C 65% 5.0 mph WNW8.0 kmh WNW -- 30.26 in1024.7 mb 0.00 in0.0 mm 0.00 in0.0 mm 0.02 in0.5 mm
01:55 PM 44.4°F6.9°C 33.4°F0.8°C 65% 4.0 mph SW6.4 kmh SW -- 30.26 in1024.7 mb 0.00 in0.0 mm 0.00 in0.0 mm 0.02 in0.5 mm
02:00 PM 44.3°F6.8°C 33.3°F0.7°C 65% 4.0 mph SSE6.4 kmh SSE -- 30.26 in1024.7 mb 0.00 in0.0 mm 0.00 in0.0 mm 0.02 in0.5 mm
02:05 PM 44.2°F6.8°C 32.5°F0.3°C 63% 4.0 mph SW6.4 kmh SW -- 30.27 in1025.1 mb 0.00 in0.0 mm 0.00 in0.0 mm 0.02 in0.5 mm
02:10 PM 44.2°F6.8°C 32.9°F0.5°C 64% 6.0 mph S9.7 kmh S 12.0 mph19.3 kmh 30.26 in1024.7 mb 0.00 in0.0 mm 0.00 in0.0 mm 0.02 in0.5 mm
02:15 PM 44.6°F7.0°C 33.6°F0.9°C 65% 3.0 mph W4.8 kmh W -- 30.26 in1024.7 mb 0.00 in0.0 mm 0.00 in0.0 mm 0.02 in0.5 mm
02:20 PM 44.7°F7.1°C 33.4°F0.8°C 64% 5.0 mph SW8.0 kmh SW -- 30.26 in1024.7 mb 0.00 in0.0 mm 0.00 in0.0 mm 0.02 in0.5 mm
02:25 PM 44.6°F7.0°C 33.3°F0.7°C 64% 2.0 mph WSW3.2 kmh WSW -- 30.27 in1025.1 mb 0.00 in0.0 mm 0.00 in0.0 mm 0.02 in0.5 mm
02:30 PM 44.5°F6.9°C 33.1°F0.6°C 64% 4.0 mph SW6.4 kmh SW -- 30.27 in1025.1 mb 0.00 in0.0 mm 0.00 in0.0 mm 0.02 in0.5 mm
02:35 PM 44.3°F6.8°C 33.3°F0.7°C 65% 1.0 mph SSW1.6 kmh SSW 7.0 mph11.3 kmh 30.27 in1025.1 mb 0.00 in0.0 mm 0.00 in0.0 mm 0.02 in0.5 mm
02:40 PM 44.4°F6.9°C 33.4°F0.8°C 65% 5.0 mph SW8.0 kmh SW -- 30.27 in1025.1 mb 0.00 in0.0 mm 0.00 in0.0 mm 0.02 in0.5 mm
02:45 PM 44.3°F6.8°C 33.3°F0.7°C 65% 5.0 mph WSW8.0 kmh WSW -- 30.27 in1025.1 mb 0.00 in0.0 mm 0.00 in0.0 mm 0.02 in0.5 mm
02:50 PM 44.1°F6.7°C 33.4°F0.8°C 66% 11.0 mph WSW17.7 kmh WSW -- 30.27 in1025.1 mb 0.00 in0.0 mm 0.00 in0.0 mm 0.02 in0.5 mm
02:55 PM 43.3°F6.3°C 33.4°F0.8°C 68% 9.0 mph S14.5 kmh S -- 30.27 in1025.1 mb 0.00 in0.0 mm 0.00 in0.0 mm 0.02 in0.5 mm
03:00 PM 42.7°F5.9°C 33.6°F0.9°C 70% 7.0 mph WSW11.3 kmh WSW 14.0 mph22.5 kmh 30.27 in1025.1 mb 0.00 in0.0 mm 0.00 in0.0 mm 0.02 in0.5 mm
03:05 PM 42.5°F5.8°C 33.8°F1.0°C 71% 4.0 mph WSW6.4 kmh WSW -- 30.27 in1025.1 mb 0.00 in0.0 mm 0.00 in0.0 mm 0.02 in0.5 mm
03:10 PM 42.8°F6.0°C 34.0°F1.1°C 71% 6.0 mph SW9.7 kmh SW -- 30.28 in1025.4 mb 0.00 in0.0 mm 0.00 in0.0 mm 0.02 in0.5 mm
03:15 PM 43.2°F6.2°C 34.0°F1.1°C 70% 4.0 mph WSW6.4 kmh WSW -- 30.28 in1025.4 mb 0.00 in0.0 mm 0.00 in0.0 mm 0.02 in0.5 mm
03:20 PM 43.5°F6.4°C 34.3°F1.3°C 70% 10.0 mph WSW16.1 kmh WSW -- 30.27 in1025.1 mb 0.00 in0.0 mm 0.00 in0.0 mm 0.02 in0.5 mm
03:25 PM 43.3°F6.3°C 33.8°F1.0°C 69% 11.0 mph WSW17.7 kmh WSW 13.0 mph20.9 kmh 30.27 in1025.1 mb 0.00 in0.0 mm 0.00 in0.0 mm 0.02 in0.5 mm
03:30 PM 43.4°F6.3°C 33.4°F0.8°C 68% 10.0 mph SW16.1 kmh SW -- 30.28 in1025.4 mb 0.00 in0.0 mm 0.00 in0.0 mm 0.02 in0.5 mm
03:35 PM 43.5°F6.4°C 34.0°F1.1°C 69% 4.0 mph SW6.4 kmh SW -- 30.28 in1025.4 mb 0.00 in0.0 mm 0.00 in0.0 mm 0.02 in0.5 mm
03:40 PM 43.6°F6.4°C 34.0°F1.1°C 69% 4.0 mph SW6.4 kmh SW -- 30.27 in1025.1 mb 0.00 in0.0 mm 0.00 in0.0 mm 0.02 in0.5 mm
03:45 PM 43.4°F6.3°C 33.8°F1.0°C 69% 4.0 mph SW6.4 kmh SW -- 30.28 in1025.4 mb 0.00 in0.0 mm 0.00 in0.0 mm 0.02 in0.5 mm
03:50 PM 43.6°F6.4°C 34.0°F1.1°C 69% 4.0 mph SW6.4 kmh SW 10.0 mph16.1 kmh 30.28 in1025.4 mb 0.00 in0.0 mm 0.00 in0.0 mm 0.02 in0.5 mm
03:55 PM 43.5°F6.4°C 33.6°F0.9°C 68% 4.0 mph NW6.4 kmh NW -- 30.27 in1025.1 mb 0.00 in0.0 mm 0.00 in0.0 mm 0.02 in0.5 mm
04:00 PM 43.4°F6.3°C 33.4°F0.8°C 68% 6.0 mph WSW9.7 kmh WSW -- 30.28 in1025.4 mb 0.01 in0.3 mm 0.01 in0.3 mm 0.03 in0.8 mm
04:05 PM 43.2°F6.2°C 33.6°F0.9°C 69% 6.0 mph WSW9.7 kmh WSW -- 30.28 in1025.4 mb 0.01 in0.3 mm 0.00 in0.0 mm 0.03 in0.8 mm
04:10 PM 43.2°F6.2°C 33.6°F0.9°C 69% 7.0 mph SW11.3 kmh SW -- 30.28 in1025.4 mb 0.01 in0.3 mm 0.00 in0.0 mm 0.03 in0.8 mm
04:15 PM 43.2°F6.2°C 34.0°F1.1°C 70% 4.0 mph SW6.4 kmh SW 10.0 mph16.1 kmh 30.28 in1025.4 mb 0.01 in0.3 mm 0.00 in0.0 mm 0.03 in0.8 mm
04:20 PM 43.2°F6.2°C 34.0°F1.1°C 70% 3.0 mph W4.8 kmh W -- 30.28 in1025.4 mb 0.01 in0.3 mm 0.00 in0.0 mm 0.03 in0.8 mm
04:25 PM 43.1°F6.2°C 34.0°F1.1°C 70% 7.0 mph WSW11.3 kmh WSW -- 30.28 in1025.4 mb 0.01 in0.3 mm 0.00 in0.0 mm 0.03 in0.8 mm
04:30 PM 42.9°F6.1°C 33.8°F1.0°C 70% 7.0 mph W11.3 kmh W -- 30.28 in1025.4 mb 0.01 in0.3 mm 0.00 in0.0 mm 0.03 in0.8 mm
04:35 PM 42.6°F5.9°C 33.8°F1.0°C 71% 6.0 mph SW9.7 kmh SW -- 30.29 in1025.7 mb 0.01 in0.3 mm 0.00 in0.0 mm 0.03 in0.8 mm
04:40 PM 42.3°F5.7°C 33.8°F1.0°C 72% 2.0 mph SW3.2 kmh SW 11.0 mph17.7 kmh 30.28 in1025.4 mb 0.01 in0.3 mm 0.00 in0.0 mm 0.03 in0.8 mm
04:45 PM 42.1°F5.6°C 34.0°F1.1°C 73% Calm Calm -- 30.29 in1025.7 mb 0.01 in0.3 mm 0.00 in0.0 mm 0.03 in0.8 mm
04:50 PM 41.9°F5.5°C 34.2°F1.2°C 74% 3.0 mph SW4.8 kmh SW -- 30.29 in1025.7 mb 0.01 in0.3 mm 0.00 in0.0 mm 0.03 in0.8 mm
04:55 PM 41.8°F5.4°C 34.3°F1.3°C 75% 3.0 mph WSW4.8 kmh WSW -- 30.29 in1025.7 mb 0.01 in0.3 mm 0.00 in0.0 mm 0.03 in0.8 mm
05:00 PM 41.9°F5.5°C 34.9°F1.6°C 76% 5.0 mph SSW8.0 kmh SSW -- 30.29 in1025.7 mb 0.00 in0.0 mm 0.00 in0.0 mm 0.03 in0.8 mm
05:05 PM 41.8°F5.4°C 34.7°F1.5°C 76% 6.0 mph WSW9.7 kmh WSW 9.0 mph14.5 kmh 30.29 in1025.7 mb 0.00 in0.0 mm 0.00 in0.0 mm 0.03 in0.8 mm
05:10 PM 41.7°F5.4°C 34.7°F1.5°C 76% 4.0 mph W6.4 kmh W -- 30.29 in1025.7 mb 0.00 in0.0 mm 0.00 in0.0 mm 0.03 in0.8 mm
05:15 PM 41.7°F5.4°C 34.7°F1.5°C 76% 5.0 mph WSW8.0 kmh WSW -- 30.29 in1025.7 mb 0.00 in0.0 mm 0.00 in0.0 mm 0.03 in0.8 mm
05:20 PM 41.8°F5.4°C 34.7°F1.5°C 76% 3.0 mph NW4.8 kmh NW -- 30.29 in1025.7 mb 0.00 in0.0 mm 0.00 in0.0 mm 0.03 in0.8 mm
05:25 PM 41.9°F5.5°C 34.9°F1.6°C 76% 3.0 mph WNW4.8 kmh WNW -- 30.29 in1025.7 mb 0.00 in0.0 mm 0.00 in0.0 mm 0.03 in0.8 mm
05:30 PM 41.9°F5.5°C 34.9°F1.6°C 76% 1.0 mph W1.6 kmh W 7.0 mph11.3 kmh 30.29 in1025.7 mb 0.00 in0.0 mm 0.00 in0.0 mm 0.03 in0.8 mm
05:35 PM 42.0°F5.6°C 35.4°F1.9°C 77% Calm Calm -- 30.29 in1025.7 mb 0.00 in0.0 mm 0.00 in0.0 mm 0.03 in0.8 mm
05:40 PM 42.1°F5.6°C 35.4°F1.9°C 77% 2.0 mph WSW3.2 kmh WSW -- 30.29 in1025.7 mb 0.00 in0.0 mm 0.00 in0.0 mm 0.03 in0.8 mm
05:45 PM 42.0°F5.6°C 35.4°F1.9°C 77% 3.0 mph WNW4.8 kmh WNW -- 30.29 in1025.7 mb 0.00 in0.0 mm 0.00 in0.0 mm 0.03 in0.8 mm
05:50 PM 41.9°F5.5°C 35.2°F1.8°C 77% 1.0 mph W1.6 kmh W -- 30.29 in1025.7 mb 0.00 in0.0 mm 0.00 in0.0 mm 0.03 in0.8 mm
05:55 PM 42.0°F5.6°C 35.1°F1.7°C 76% 3.0 mph WNW4.8 kmh WNW 6.0 mph9.7 kmh 30.29 in1025.7 mb 0.00 in0.0 mm 0.00 in0.0 mm 0.03 in0.8 mm
06:00 PM 42.1°F5.6°C 35.1°F1.7°C 76% 2.0 mph WSW3.2 kmh WSW -- 30.29 in1025.7 mb 0.00 in0.0 mm 0.00 in0.0 mm 0.03 in0.8 mm
06:05 PM 42.2°F5.7°C 34.9°F1.6°C 75% 4.0 mph NW6.4 kmh NW -- 30.29 in1025.7 mb 0.00 in0.0 mm 0.00 in0.0 mm 0.03 in0.8 mm
06:10 PM 42.4°F5.8°C 35.1°F1.7°C 75% 2.0 mph WNW3.2 kmh WNW -- 30.29 in1025.7 mb 0.00 in0.0 mm 0.00 in0.0 mm 0.03 in0.8 mm
06:15 PM 42.4°F5.8°C 34.7°F1.5°C 74% Calm Calm -- 30.29 in1025.7 mb 0.00 in0.0 mm 0.00 in0.0 mm 0.03 in0.8 mm
06:20 PM 42.6°F5.9°C 34.9°F1.6°C 74% Calm Calm 2.0 mph3.2 kmh 30.29 in1025.7 mb 0.00 in0.0 mm 0.00 in0.0 mm 0.03 in0.8 mm
06:25 PM 42.8°F6.0°C 35.1°F1.7°C 74% Calm Calm -- 30.30 in1026.1 mb 0.00 in0.0 mm 0.00 in0.0 mm 0.03 in0.8 mm
06:30 PM 42.8°F6.0°C 34.7°F1.5°C 73% Calm Calm -- 30.30 in1026.1 mb 0.00 in0.0 mm 0.00 in0.0 mm 0.03 in0.8 mm
06:35 PM 42.7°F5.9°C 34.5°F1.4°C 73% Calm Calm -- 30.30 in1026.1 mb 0.00 in0.0 mm 0.00 in0.0 mm 0.03 in0.8 mm
06:40 PM 42.7°F5.9°C 34.2°F1.2°C 72% Calm Calm -- 30.30 in1026.1 mb 0.00 in0.0 mm 0.00 in0.0 mm 0.03 in0.8 mm
06:45 PM 42.7°F5.9°C 34.2°F1.2°C 72% Calm Calm 4.0 mph6.4 kmh 30.30 in1026.1 mb 0.00 in0.0 mm 0.00 in0.0 mm 0.03 in0.8 mm
06:50 PM 42.7°F5.9°C 34.2°F1.2°C 72% Calm Calm -- 30.30 in1026.1 mb 0.00 in0.0 mm 0.00 in0.0 mm 0.03 in0.8 mm
06:55 PM 42.7°F5.9°C 34.2°F1.2°C 72% 1.0 mph W1.6 kmh W -- 30.30 in1026.1 mb 0.00 in0.0 mm 0.00 in0.0 mm 0.03 in0.8 mm
07:00 PM 42.7°F5.9°C 34.2°F1.2°C 72% 2.0 mph WNW3.2 kmh WNW -- 30.30 in1026.1 mb 0.00 in0.0 mm 0.00 in0.0 mm 0.03 in0.8 mm
07:05 PM 42.7°F5.9°C 34.2°F1.2°C 72% Calm Calm -- 30.30 in1026.1 mb 0.00 in0.0 mm 0.00 in0.0 mm 0.03 in0.8 mm
07:10 PM 42.7°F5.9°C 34.2°F1.2°C 72% Calm Calm 3.0 mph4.8 kmh 30.30 in1026.1 mb 0.00 in0.0 mm 0.00 in0.0 mm 0.03 in0.8 mm
07:15 PM 42.7°F5.9°C 34.2°F1.2°C 72% Calm Calm -- 30.30 in1026.1 mb 0.00 in0.0 mm 0.00 in0.0 mm 0.03 in0.8 mm
07:20 PM 42.7°F5.9°C 34.2°F1.2°C 72% 3.0 mph WNW4.8 kmh WNW -- 30.30 in1026.1 mb 0.00 in0.0 mm 0.00 in0.0 mm 0.03 in0.8 mm
07:25 PM 42.6°F5.9°C 34.2°F1.2°C 72% Calm Calm -- 30.30 in1026.1 mb 0.00 in0.0 mm 0.00 in0.0 mm 0.03 in0.8 mm
07:30 PM 42.5°F5.8°C 34.0°F1.1°C 72% Calm Calm -- 30.30 in1026.1 mb 0.00 in0.0 mm 0.00 in0.0 mm 0.03 in0.8 mm
07:35 PM 42.5°F5.8°C 34.3°F1.3°C 73% Calm Calm 3.0 mph4.8 kmh 30.30 in1026.1 mb 0.00 in0.0 mm 0.00 in0.0 mm 0.03 in0.8 mm
07:40 PM 42.5°F5.8°C 34.3°F1.3°C 73% Calm Calm -- 30.31 in1026.4 mb 0.00 in0.0 mm 0.00 in0.0 mm 0.03 in0.8 mm
07:45 PM 42.5°F5.8°C 34.3°F1.3°C 73% Calm Calm -- 30.31 in1026.4 mb 0.00 in0.0 mm 0.00 in0.0 mm 0.03 in0.8 mm
07:50 PM 42.5°F5.8°C 34.3°F1.3°C 73% 1.0 mph W1.6 kmh W -- 30.31 in1026.4 mb 0.00 in0.0 mm 0.00 in0.0 mm 0.03 in0.8 mm
07:55 PM 42.5°F5.8°C 34.3°F1.3°C 73% Calm Calm -- 30.31 in1026.4 mb 0.00 in0.0 mm 0.00 in0.0 mm 0.03 in0.8 mm
08:00 PM 42.4°F5.8°C 34.3°F1.3°C 73% 1.0 mph WSW1.6 kmh WSW 3.0 mph4.8 kmh 30.31 in1026.4 mb 0.00 in0.0 mm 0.00 in0.0 mm 0.03 in0.8 mm
08:05 PM 42.4°F5.8°C 34.3°F1.3°C 73% Calm Calm -- 30.31 in1026.4 mb 0.00 in0.0 mm 0.00 in0.0 mm 0.03 in0.8 mm
08:10 PM 42.3°F5.7°C 34.5°F1.4°C 74% 5.0 mph WSW8.0 kmh WSW -- 30.31 in1026.4 mb 0.00 in0.0 mm 0.00 in0.0 mm 0.03 in0.8 mm
08:15 PM 42.2°F5.7°C 34.9°F1.6°C 75% Calm Calm -- 30.32 in1026.8 mb 0.00 in0.0 mm 0.00 in0.0 mm 0.03 in0.8 mm
08:20 PM 42.1°F5.6°C 34.7°F1.5°C 75% Calm Calm -- 30.32 in1026.8 mb 0.00 in0.0 mm 0.00 in0.0 mm 0.03 in0.8 mm
08:25 PM 41.9°F5.5°C 34.9°F1.6°C 76% Calm Calm 4.0 mph6.4 kmh 30.32 in1026.8 mb 0.00 in0.0 mm 0.00 in0.0 mm 0.03 in0.8 mm
08:30 PM 41.8°F5.4°C 34.7°F1.5°C 76% 2.0 mph WNW3.2 kmh WNW -- 30.32 in1026.8 mb 0.00 in0.0 mm 0.00 in0.0 mm 0.03 in0.8 mm
08:35 PM 41.7°F5.4°C 34.7°F1.5°C 76% Calm Calm -- 30.32 in1026.8 mb 0.00 in0.0 mm 0.00 in0.0 mm 0.03 in0.8 mm
08:40 PM 41.7°F5.4°C 34.7°F1.5°C 76% Calm Calm -- 30.32 in1026.8 mb 0.00 in0.0 mm 0.00 in0.0 mm 0.03 in0.8 mm
08:45 PM 41.5°F5.3°C 34.9°F1.6°C 77% 3.0 mph SW4.8 kmh SW -- 30.32 in1026.8 mb 0.00 in0.0 mm 0.00 in0.0 mm 0.03 in0.8 mm
08:50 PM 41.4°F5.2°C 34.7°F1.5°C 77% 3.0 mph WSW4.8 kmh WSW 5.0 mph8.0 kmh 30.32 in1026.8 mb 0.00 in0.0 mm 0.00 in0.0 mm 0.03 in0.8 mm
08:55 PM 41.3°F5.2°C 35.1°F1.7°C 78% 2.0 mph SW3.2 kmh SW -- 30.32 in1026.8 mb 0.00 in0.0 mm 0.00 in0.0 mm 0.03 in0.8 mm
09:00 PM 41.2°F5.1°C 34.9°F1.6°C 78% 3.0 mph SW4.8 kmh SW -- 30.32 in1026.8 mb 0.00 in0.0 mm 0.00 in0.0 mm 0.03 in0.8 mm
09:05 PM 41.1°F5.1°C 34.9°F1.6°C 78% 2.0 mph SW3.2 kmh SW -- 30.32 in1026.8 mb 0.00 in0.0 mm 0.00 in0.0 mm 0.03 in0.8 mm
09:10 PM 41.1°F5.1°C 34.9°F1.6°C 78% 2.0 mph SW3.2 kmh SW -- 30.32 in1026.8 mb 0.00 in0.0 mm 0.00 in0.0 mm 0.03 in0.8 mm
09:15 PM 41.1°F5.1°C 34.9°F1.6°C 78% 1.0 mph SW1.6 kmh SW 4.0 mph6.4 kmh 30.32 in1026.8 mb 0.00 in0.0 mm 0.00 in0.0 mm 0.03 in0.8 mm
09:20 PM 41.1°F5.1°C 34.9°F1.6°C 78% 2.0 mph SW3.2 kmh SW -- 30.32 in1026.8 mb 0.00 in0.0 mm 0.00 in0.0 mm 0.03 in0.8 mm
09:25 PM 41.1°F5.1°C 34.9°F1.6°C 78% 1.0 mph SW1.6 kmh SW -- 30.32 in1026.8 mb 0.00 in0.0 mm 0.00 in0.0 mm 0.03 in0.8 mm
09:30 PM 41.0°F5.0°C 34.3°F1.3°C 77% 1.0 mph SW1.6 kmh SW -- 30.32 in1026.8 mb 0.00 in0.0 mm 0.00 in0.0 mm 0.03 in0.8 mm
09:35 PM 41.1°F5.1°C 34.5°F1.4°C 77% 3.0 mph SW4.8 kmh SW -- 30.32 in1026.8 mb 0.00 in0.0 mm 0.00 in0.0 mm 0.03 in0.8 mm
09:40 PM 41.0°F5.0°C 34.3°F1.3°C 77% 2.0 mph WSW3.2 kmh WSW 4.0 mph6.4 kmh 30.32 in1026.8 mb 0.00 in0.0 mm 0.00 in0.0 mm 0.03 in0.8 mm
09:45 PM 40.9°F4.9°C 34.2°F1.2°C 77% Calm Calm -- 30.32 in1026.8 mb 0.00 in0.0 mm 0.00 in0.0 mm 0.03 in0.8 mm
09:50 PM 40.9°F4.9°C 34.2°F1.2°C 77% Calm Calm -- 30.33 in1027.1 mb 0.00 in0.0 mm 0.00 in0.0 mm 0.03 in0.8 mm
09:55 PM 40.7°F4.8°C 34.0°F1.1°C 77% 1.0 mph WSW1.6 kmh WSW -- 30.33 in1027.1 mb 0.00 in0.0 mm 0.00 in0.0 mm 0.03 in0.8 mm
10:00 PM 40.4°F4.7°C 33.8°F1.0°C 77% 1.0 mph SW1.6 kmh SW -- 30.33 in1027.1 mb 0.00 in0.0 mm 0.00 in0.0 mm 0.03 in0.8 mm
10:05 PM 40.2°F4.6°C 33.6°F0.9°C 77% Calm Calm 4.0 mph6.4 kmh 30.33 in1027.1 mb 0.00 in0.0 mm 0.00 in0.0 mm 0.03 in0.8 mm
10:10 PM 40.0°F4.4°C 33.6°F0.9°C 78% 2.0 mph WSW3.2 kmh WSW -- 30.33 in1027.1 mb 0.00 in0.0 mm 0.00 in0.0 mm 0.03 in0.8 mm
10:15 PM 39.8°F4.3°C 33.4°F0.8°C 78% 2.0 mph WSW3.2 kmh WSW -- 30.33 in1027.1 mb 0.00 in0.0 mm 0.00 in0.0 mm 0.03 in0.8 mm
10:20 PM 39.7°F4.3°C 33.4°F0.8°C 78% 2.0 mph WSW3.2 kmh WSW -- 30.33 in1027.1 mb 0.00 in0.0 mm 0.00 in0.0 mm 0.03 in0.8 mm
10:25 PM 39.4°F4.1°C 33.4°F0.8°C 79% 2.0 mph WSW3.2 kmh WSW -- 30.33 in1027.1 mb 0.00 in0.0 mm 0.00 in0.0 mm 0.03 in0.8 mm
10:30 PM 39.0°F3.9°C 33.1°F0.6°C 79% 4.0 mph WSW6.4 kmh WSW 4.0 mph6.4 kmh 30.33 in1027.1 mb 0.00 in0.0 mm 0.00 in0.0 mm 0.03 in0.8 mm
10:35 PM 38.6°F3.7°C 33.1°F0.6°C 80% 2.0 mph WSW3.2 kmh WSW -- 30.33 in1027.1 mb 0.00 in0.0 mm 0.00 in0.0 mm 0.03 in0.8 mm
10:40 PM 38.4°F3.6°C 33.1°F0.6°C 81% 3.0 mph WSW4.8 kmh WSW -- 30.33 in1027.1 mb 0.00 in0.0 mm 0.00 in0.0 mm 0.03 in0.8 mm
10:45 PM 38.5°F3.6°C 33.1°F0.6°C 81% 3.0 mph W4.8 kmh W -- 30.33 in1027.1 mb 0.00 in0.0 mm 0.00 in0.0 mm 0.03 in0.8 mm
10:50 PM 38.5°F3.6°C 33.1°F0.6°C 81% 4.0 mph W6.4 kmh W -- 30.33 in1027.1 mb 0.00 in0.0 mm 0.00 in0.0 mm 0.03 in0.8 mm
10:55 PM 38.3°F3.5°C 33.1°F0.6°C 81% 3.0 mph W4.8 kmh W 5.0 mph8.0 kmh 30.33 in1027.1 mb 0.00 in0.0 mm 0.00 in0.0 mm 0.03 in0.8 mm
11:00 PM 38.2°F3.4°C 33.1°F0.6°C 82% 2.0 mph WSW3.2 kmh WSW -- 30.33 in1027.1 mb 0.00 in0.0 mm 0.00 in0.0 mm 0.04 in1.0 mm
11:05 PM 38.3°F3.5°C 33.3°F0.7°C 82% 3.0 mph WSW4.8 kmh WSW -- 30.33 in1027.1 mb 0.00 in0.0 mm 0.00 in0.0 mm 0.04 in1.0 mm
11:10 PM 38.4°F3.6°C 33.4°F0.8°C 82% 4.0 mph W6.4 kmh W -- 30.33 in1027.1 mb 0.00 in0.0 mm 0.00 in0.0 mm 0.04 in1.0 mm
11:15 PM 38.0°F3.3°C 32.9°F0.5°C 82% 4.0 mph W6.4 kmh W -- 30.34 in1027.4 mb 0.00 in0.0 mm 0.00 in0.0 mm 0.04 in1.0 mm
11:20 PM 38.1°F3.4°C 33.4°F0.8°C 83% 4.0 mph W6.4 kmh W 5.0 mph8.0 kmh 30.34 in1027.4 mb 0.00 in0.0 mm 0.00 in0.0 mm 0.04 in1.0 mm
11:25 PM 38.1°F3.4°C 33.1°F0.6°C 82% 5.0 mph WSW8.0 kmh WSW -- 30.34 in1027.4 mb 0.00 in0.0 mm 0.00 in0.0 mm 0.04 in1.0 mm
11:30 PM 38.0°F3.3°C 33.3°F0.7°C 83% 3.0 mph WSW4.8 kmh WSW -- 30.34 in1027.4 mb 0.00 in0.0 mm 0.00 in0.0 mm 0.04 in1.0 mm
11:35 PM 38.3°F3.5°C 33.6°F0.9°C 83% 2.0 mph WSW3.2 kmh WSW -- 30.34 in1027.4 mb 0.00 in0.0 mm 0.00 in0.0 mm 0.04 in1.0 mm
11:40 PM 38.6°F3.7°C 33.6°F0.9°C 82% 3.0 mph WSW4.8 kmh WSW -- 30.34 in1027.4 mb 0.00 in0.0 mm 0.00 in0.0 mm 0.04 in1.0 mm
11:45 PM 38.6°F3.7°C 33.6°F0.9°C 82% 3.0 mph WSW4.8 kmh WSW 4.0 mph6.4 kmh 30.35 in1027.8 mb 0.00 in0.0 mm 0.00 in0.0 mm 0.04 in1.0 mm
11:50 PM 38.6°F3.7°C 33.6°F0.9°C 82% 4.0 mph WSW6.4 kmh WSW -- 30.34 in1027.4 mb 0.00 in0.0 mm 0.00 in0.0 mm 0.04 in1.0 mm
11:55 PM 38.8°F3.8°C 33.8°F1.0°C 82% 3.0 mph W4.8 kmh W -- 30.34 in1027.4 mb 0.00 in0.0 mm 0.00 in0.0 mm 0.04 in1.0 mm